createdAt,value
2016-10-23T00:00:01.507Z,93.52
2016-10-23T00:00:23.227Z,93.48
2016-10-23T00:00:44.956Z,93.39
2016-10-23T00:01:07.706Z,93.26
2016-10-23T00:01:29.555Z,93.21
2016-10-23T00:01:56.073Z,93.26
2016-10-23T00:02:17.805Z,93.30
2016-10-23T00:02:39.534Z,93.35
2016-10-23T00:03:01.281Z,93.43
2016-10-23T00:03:23.017Z,93.64
2016-10-23T00:03:44.766Z,93.73
2016-10-23T00:04:06.514Z,93.84
2016-10-23T00:04:28.256Z,93.94
2016-10-23T00:04:49.981Z,94.01
2016-10-23T00:05:11.759Z,94.11
2016-10-23T00:06:00.276Z,94.16
2016-10-23T00:06:22.045Z,94.15
2016-10-23T00:06:48.549Z,94.20
2016-10-23T00:07:10.292Z,94.24
2016-10-23T00:07:32.106Z,94.03
2016-10-23T00:07:53.826Z,94.05
2016-10-23T00:08:15.655Z,93.96
2016-10-23T00:08:37.467Z,93.89
2016-10-23T00:09:00.270Z,93.81
2016-10-23T00:09:21.999Z,93.78
2016-10-23T00:09:44.723Z,93.70
2016-10-23T00:10:06.466Z,93.77
2016-10-23T00:10:28.201Z,93.81
2016-10-23T00:10:50.008Z,93.80
2016-10-23T00:11:11.879Z,93.85
2016-10-23T00:11:38.393Z,93.90
2016-10-23T00:12:00.102Z,93.86
2016-10-23T00:12:21.831Z,93.77
2016-10-23T00:12:43.566Z,93.69
2016-10-23T00:13:05.286Z,93.66
2016-10-23T00:13:27.007Z,93.72
2016-10-23T00:13:48.734Z,93.73
2016-10-23T00:14:10.464Z,93.78
2016-10-23T00:14:33.189Z,93.81
2016-10-23T00:14:54.989Z,93.71
2016-10-23T00:15:16.733Z,93.67
2016-10-23T00:15:38.544Z,93.61
2016-10-23T00:16:00.259Z,93.57
2016-10-23T00:16:21.982Z,93.47
2016-10-23T00:16:43.727Z,93.47
2016-10-23T00:17:05.482Z,93.44
2016-10-23T00:17:27.214Z,93.50
2016-10-23T00:17:48.947Z,93.50
2016-10-23T00:18:15.456Z,93.47
2016-10-23T00:18:37.189Z,93.51
2016-10-23T00:18:58.916Z,93.58
2016-10-23T00:19:20.663Z,93.65
2016-10-23T00:19:42.408Z,93.65
2016-10-23T00:20:04.145Z,93.65
2016-10-23T00:20:25.996Z,93.66
2016-10-23T00:20:47.749Z,93.60
2016-10-23T00:21:09.519Z,93.57
2016-10-23T00:21:31.452Z,93.52
2016-10-23T00:21:53.276Z,93.39
2016-10-23T00:22:15.064Z,93.31
2016-10-23T00:22:36.816Z,93.20
2016-10-23T00:22:58.651Z,93.21
2016-10-23T00:23:20.465Z,93.20
2016-10-23T00:23:42.270Z,93.29
2016-10-23T00:24:04.186Z,93.48
2016-10-23T00:24:25.922Z,93.57
2016-10-23T00:24:47.698Z,93.66
2016-10-23T00:25:09.435Z,93.72
2016-10-23T00:25:31.189Z,93.73
2016-10-23T00:25:52.914Z,93.71
2016-10-23T00:26:19.436Z,93.61
2016-10-23T00:26:42.168Z,93.44
2016-10-23T00:27:03.901Z,93.38
2016-10-23T00:27:25.637Z,93.54
2016-10-23T00:27:47.367Z,93.58
2016-10-23T00:28:09.110Z,93.61
2016-10-23T00:28:30.846Z,93.73
2016-10-23T00:28:52.606Z,93.72
2016-10-23T00:29:14.470Z,93.62
2016-10-23T00:29:36.233Z,93.64
2016-10-23T00:29:57.960Z,93.71
2016-10-23T00:30:20.687Z,93.68
2016-10-23T00:30:42.415Z,93.56
2016-10-23T00:31:08.917Z,93.48
2016-10-23T00:31:30.652Z,93.48
2016-10-23T00:31:52.427Z,93.53
2016-10-23T00:32:14.167Z,93.62
2016-10-23T00:32:36.890Z,93.67
2016-10-23T00:32:58.620Z,93.67
2016-10-23T00:33:20.451Z,93.70
2016-10-23T00:33:42.189Z,93.69
2016-10-23T00:34:03.911Z,93.71
2016-10-23T00:34:25.709Z,93.73
2016-10-23T00:34:47.537Z,93.73
2016-10-23T00:35:09.341Z,93.63
2016-10-23T00:35:31.090Z,93.46
2016-10-23T00:35:52.873Z,93.33
2016-10-23T00:36:22.269Z,93.36
2016-10-23T00:36:44.020Z,93.32
2016-10-23T00:37:05.744Z,93.29
2016-10-23T00:37:27.481Z,93.32
2016-10-23T00:37:49.293Z,93.26
2016-10-23T00:38:11.112Z,93.25
2016-10-23T00:38:32.876Z,93.25
2016-10-23T00:38:54.619Z,93.33
2016-10-23T00:39:16.324Z,93.42
2016-10-23T00:39:38.047Z,93.49
2016-10-23T00:39:59.783Z,93.43
2016-10-23T00:40:21.529Z,93.37
2016-10-23T00:40:43.256Z,93.33
2016-10-23T00:41:04.987Z,93.37
2016-10-23T00:41:26.725Z,93.36
2016-10-23T00:41:53.232Z,93.36
2016-10-23T00:42:14.952Z,93.34
2016-10-23T00:42:36.699Z,93.25
2016-10-23T00:42:58.427Z,93.11
2016-10-23T00:43:49.713Z,93.47
2016-10-23T00:44:11.438Z,93.57
2016-10-23T00:44:34.188Z,93.60
2016-10-23T00:44:55.982Z,93.62
2016-10-23T00:45:17.722Z,93.63
2016-10-23T00:45:42.294Z,93.57
2016-10-23T00:46:04.025Z,93.46
2016-10-23T00:46:25.757Z,93.31
2016-10-23T00:46:47.491Z,93.26
2016-10-23T00:47:09.283Z,93.31
2016-10-23T00:47:31.007Z,93.36
2016-10-23T00:47:52.737Z,93.46
2016-10-23T00:48:14.469Z,93.54
2016-10-23T00:48:36.306Z,93.54
2016-10-23T00:48:58.048Z,93.51
2016-10-23T00:49:19.784Z,93.51
2016-10-23T00:49:41.497Z,93.61
2016-10-23T00:50:03.228Z,93.69
2016-10-23T00:50:24.977Z,93.72
2016-10-23T00:50:46.741Z,93.78
2016-10-23T00:51:09.466Z,93.82
2016-10-23T00:51:31.193Z,93.82
2016-10-23T00:51:57.688Z,93.84
2016-10-23T00:52:19.472Z,93.79
2016-10-23T00:52:41.212Z,93.72
2016-10-23T00:53:02.935Z,93.78
2016-10-23T00:53:24.671Z,93.69
2016-10-23T00:53:46.402Z,93.61
2016-10-23T00:54:08.133Z,93.68
2016-10-23T00:54:29.863Z,93.70
2016-10-23T00:54:51.579Z,93.73
2016-10-23T00:55:13.316Z,93.80
2016-10-23T00:55:35.122Z,93.82
2016-10-23T00:55:56.889Z,93.90
2016-10-23T00:56:18.632Z,93.90
2016-10-23T00:56:40.386Z,93.85
2016-10-23T00:57:02.193Z,93.85
2016-10-23T00:57:23.910Z,93.73
2016-10-23T00:57:45.661Z,93.62
2016-10-23T00:58:07.395Z,93.63
2016-10-23T00:58:29.119Z,93.64
2016-10-23T00:58:50.841Z,93.70
2016-10-23T00:59:12.600Z,93.74
2016-10-23T00:59:34.349Z,93.74
2016-10-23T00:59:56.166Z,93.80
2016-10-23T01:00:18.026Z,93.87
2016-10-23T01:00:39.791Z,93.81
2016-10-23T01:01:01.517Z,93.69
2016-10-23T01:01:23.296Z,93.69
2016-10-23T01:01:45.027Z,93.70
2016-10-23T01:02:06.835Z,93.72
2016-10-23T01:02:28.580Z,93.72
2016-10-23T01:02:50.343Z,93.67
2016-10-23T01:03:13.133Z,93.71
2016-10-23T01:03:34.916Z,93.66
2016-10-23T01:03:56.639Z,93.59
2016-10-23T01:04:19.367Z,93.59
2016-10-23T01:04:41.138Z,93.55
2016-10-23T01:05:02.877Z,93.51
2016-10-23T01:05:24.606Z,93.41
2016-10-23T01:05:46.332Z,93.40
2016-10-23T01:06:08.062Z,93.32
2016-10-23T01:06:29.792Z,93.25
2016-10-23T01:06:51.519Z,93.12
2016-10-23T01:07:13.248Z,92.97
2016-10-23T01:07:34.967Z,92.96
2016-10-23T01:07:56.734Z,92.99
2016-10-23T01:08:18.467Z,93.13
2016-10-23T01:08:40.216Z,93.02
2016-10-23T01:09:01.940Z,92.91
2016-10-23T01:09:26.142Z,93.01
2016-10-23T01:09:47.880Z,93.06
2016-10-23T01:10:09.605Z,92.93
2016-10-23T01:10:31.336Z,92.87
2016-10-23T01:10:53.059Z,92.89
2016-10-23T01:11:14.797Z,92.96
2016-10-23T01:11:36.579Z,93.12
2016-10-23T01:11:58.338Z,93.11
2016-10-23T01:12:20.109Z,93.15
2016-10-23T01:12:41.857Z,93.06
2016-10-23T01:13:03.626Z,93.10
2016-10-23T01:13:25.456Z,93.07
2016-10-23T01:13:47.381Z,93.09
2016-10-23T01:14:09.188Z,93.10
2016-10-23T01:14:31.021Z,93.19
2016-10-23T01:14:52.768Z,93.20
2016-10-23T01:15:15.488Z,93.13
2016-10-23T01:15:37.226Z,93.19
2016-10-23T01:15:58.952Z,93.21
2016-10-23T01:16:20.683Z,93.18
2016-10-23T01:16:42.415Z,93.23
2016-10-23T01:17:04.147Z,93.20
2016-10-23T01:17:26.878Z,93.19
2016-10-23T01:17:48.608Z,93.22
2016-10-23T01:18:10.330Z,93.05
2016-10-23T01:18:36.850Z,93.12
2016-10-23T01:18:58.569Z,93.12
2016-10-23T01:19:20.294Z,93.28
2016-10-23T01:19:46.805Z,93.36
2016-10-23T01:20:08.527Z,93.46
2016-10-23T01:20:30.300Z,93.35
2016-10-23T01:20:52.287Z,93.15
2016-10-23T01:21:14.012Z,92.99
2016-10-23T01:21:35.836Z,92.98
2016-10-23T01:21:57.692Z,93.09
2016-10-23T01:22:19.472Z,93.19
2016-10-23T01:22:41.213Z,93.30
2016-10-23T01:23:03.976Z,93.34
2016-10-23T01:23:25.823Z,93.28
2016-10-23T01:23:47.623Z,93.16
2016-10-23T01:24:09.645Z,93.14
2016-10-23T01:24:31.465Z,93.08
2016-10-23T01:24:53.190Z,93.02
2016-10-23T01:25:15.911Z,92.96
2016-10-23T01:25:37.738Z,92.99
2016-10-23T01:25:59.476Z,92.87
2016-10-23T01:26:21.197Z,92.95
2016-10-23T01:26:42.929Z,93.00
2016-10-23T01:27:04.664Z,93.21
2016-10-23T01:27:26.375Z,93.32
2016-10-23T01:27:48.104Z,93.46
2016-10-23T01:28:09.867Z,93.51
2016-10-23T01:28:31.602Z,93.57
2016-10-23T01:28:53.330Z,93.60
2016-10-23T01:29:15.076Z,93.50
2016-10-23T01:29:36.838Z,93.40
2016-10-23T01:30:03.335Z,93.22
2016-10-23T01:30:25.079Z,93.16
2016-10-23T01:30:46.798Z,93.06
2016-10-23T01:31:08.610Z,92.95
2016-10-23T01:31:30.380Z,92.89
2016-10-23T01:31:52.134Z,92.99
2016-10-23T01:32:13.856Z,92.98
2016-10-23T01:32:35.593Z,93.12
2016-10-23T01:32:57.378Z,93.20
2016-10-23T01:33:19.201Z,93.28
2016-10-23T01:33:40.941Z,93.35
2016-10-23T01:34:02.677Z,93.38
2016-10-23T01:34:24.412Z,93.46
2016-10-23T01:34:46.137Z,93.33
2016-10-23T01:35:07.856Z,93.21
2016-10-23T01:35:29.587Z,93.26
2016-10-23T01:35:51.321Z,93.38
2016-10-23T01:36:13.047Z,93.45
2016-10-23T01:36:35.778Z,93.49
2016-10-23T01:36:57.504Z,93.58
2016-10-23T01:37:19.236Z,93.67
2016-10-23T01:37:41.023Z,93.69
2016-10-23T01:38:02.807Z,93.48
2016-10-23T01:38:24.656Z,93.37
2016-10-23T01:38:46.457Z,93.30
2016-10-23T01:39:08.247Z,93.22
2016-10-23T01:39:30.040Z,93.08
2016-10-23T01:39:51.816Z,93.16
2016-10-23T01:40:13.579Z,93.25
2016-10-23T01:40:35.300Z,93.37
2016-10-23T01:40:57.041Z,93.40
2016-10-23T01:41:18.785Z,93.46
2016-10-23T01:41:40.518Z,93.53
2016-10-23T01:42:02.247Z,93.59
2016-10-23T01:42:24.002Z,93.53
2016-10-23T01:42:45.733Z,93.45
2016-10-23T01:43:07.467Z,93.36
2016-10-23T01:43:29.187Z,93.22
2016-10-23T01:43:50.919Z,93.18
2016-10-23T01:44:12.644Z,93.18
2016-10-23T01:44:34.372Z,93.07
2016-10-23T01:45:26.489Z,93.22
2016-10-23T01:45:48.302Z,93.33
2016-10-23T01:46:10.217Z,93.43
2016-10-23T01:46:32.101Z,93.53
2016-10-23T01:46:53.942Z,93.55
2016-10-23T01:47:15.686Z,93.57
2016-10-23T01:47:37.498Z,93.49
2016-10-23T01:48:04.024Z,93.40
2016-10-23T01:48:25.835Z,93.26
2016-10-23T01:48:47.603Z,93.21
2016-10-23T01:49:09.328Z,93.22
2016-10-23T01:49:31.050Z,93.26
2016-10-23T01:49:53.847Z,93.34
2016-10-23T01:50:15.651Z,93.38
2016-10-23T01:50:37.381Z,93.42
2016-10-23T01:50:59.100Z,93.44
2016-10-23T01:51:20.831Z,93.43
2016-10-23T01:51:42.560Z,93.46
2016-10-23T01:52:04.274Z,93.54
2016-10-23T01:52:26.027Z,93.56
2016-10-23T01:52:48.770Z,93.47
2016-10-23T01:53:10.499Z,93.51
2016-10-23T01:53:32.240Z,93.50
2016-10-23T01:53:53.971Z,93.33
2016-10-23T01:54:15.692Z,93.21
2016-10-23T01:54:37.428Z,93.08
2016-10-23T01:54:59.155Z,93.02
2016-10-23T01:55:20.950Z,93.03
2016-10-23T01:55:42.740Z,93.08
2016-10-23T01:56:04.654Z,93.11
2016-10-23T01:56:26.394Z,93.22
2016-10-23T01:56:48.127Z,93.26
2016-10-23T01:57:09.857Z,93.24
2016-10-23T01:57:31.584Z,93.30
2016-10-23T01:57:53.307Z,93.32
2016-10-23T01:58:19.807Z,93.40
2016-10-23T01:58:41.536Z,93.34
2016-10-23T01:59:03.256Z,93.25
2016-10-23T01:59:24.975Z,93.16
2016-10-23T01:59:46.697Z,93.07
2016-10-23T02:00:08.431Z,93.12
2016-10-23T02:00:31.169Z,93.16
2016-10-23T02:00:52.906Z,93.26
2016-10-23T02:01:14.647Z,93.32
2016-10-23T02:01:36.392Z,93.37
2016-10-23T02:01:58.106Z,93.45
2016-10-23T02:02:19.888Z,93.51
2016-10-23T02:02:41.607Z,93.55
2016-10-23T02:03:03.356Z,93.58
2016-10-23T02:03:25.094Z,93.57
2016-10-23T02:03:46.816Z,93.53
2016-10-23T02:04:08.538Z,93.56
2016-10-23T02:04:30.263Z,93.66
2016-10-23T02:04:52.013Z,93.68
2016-10-23T02:05:13.734Z,93.57
2016-10-23T02:05:35.452Z,93.46
2016-10-23T02:05:57.184Z,93.28
2016-10-23T02:06:18.925Z,93.27
2016-10-23T02:06:41.650Z,93.32
2016-10-23T02:07:03.390Z,93.35
2016-10-23T02:07:25.131Z,93.37
2016-10-23T02:07:46.906Z,93.38
2016-10-23T02:08:08.644Z,93.34
2016-10-23T02:08:30.503Z,93.35
2016-10-23T02:08:52.230Z,93.42
2016-10-23T02:09:13.954Z,93.48
2016-10-23T02:09:35.802Z,93.59
2016-10-23T02:09:57.527Z,93.60
2016-10-23T02:10:19.332Z,93.56
2016-10-23T02:10:41.222Z,93.50
2016-10-23T02:11:02.985Z,93.41
2016-10-23T02:11:24.741Z,93.38
2016-10-23T02:11:47.720Z,93.36
2016-10-23T02:12:09.532Z,93.38
2016-10-23T02:12:31.251Z,93.36
2016-10-23T02:12:53.052Z,93.27
2016-10-23T02:13:14.789Z,93.13
2016-10-23T02:13:36.573Z,93.05
2016-10-23T02:13:58.320Z,93.06
2016-10-23T02:14:20.095Z,93.09
2016-10-23T02:14:41.835Z,92.99
2016-10-23T02:15:03.679Z,92.86
2016-10-23T02:15:25.518Z,92.89
2016-10-23T02:15:47.245Z,93.05
2016-10-23T02:16:08.973Z,93.09
2016-10-23T02:16:31.684Z,93.08
2016-10-23T02:16:53.411Z,93.15
2016-10-23T02:17:15.130Z,93.33
2016-10-23T02:17:36.880Z,93.45
2016-10-23T02:17:58.629Z,93.48
2016-10-23T02:18:20.440Z,93.43
2016-10-23T02:18:43.178Z,93.41
2016-10-23T02:19:04.955Z,93.31
2016-10-23T02:19:26.698Z,93.16
2016-10-23T02:19:48.440Z,93.13
2016-10-23T02:20:10.258Z,93.21
2016-10-23T02:20:32.157Z,93.19
2016-10-23T02:20:53.949Z,93.17
2016-10-23T02:21:15.821Z,93.16
2016-10-23T02:21:37.541Z,93.15
2016-10-23T02:21:59.269Z,92.97
2016-10-23T02:22:20.998Z,92.94
2016-10-23T02:22:42.725Z,92.89
2016-10-23T02:23:04.464Z,92.90
2016-10-23T02:23:26.254Z,93.02
2016-10-23T02:23:47.988Z,93.13
2016-10-23T02:24:09.709Z,93.17
2016-10-23T02:24:31.451Z,93.38
2016-10-23T02:24:53.186Z,93.42
2016-10-23T02:25:14.954Z,93.45
2016-10-23T02:25:36.714Z,93.54
2016-10-23T02:25:58.447Z,93.63
2016-10-23T02:26:46.664Z,93.62
2016-10-23T02:27:08.392Z,93.58
2016-10-23T02:27:30.143Z,93.57
2016-10-23T02:27:51.877Z,93.55
2016-10-23T02:28:13.598Z,93.55
2016-10-23T02:28:35.345Z,93.51
2016-10-23T02:28:57.060Z,93.36
2016-10-23T02:29:23.553Z,93.15
2016-10-23T02:29:45.286Z,93.03
2016-10-23T02:30:06.999Z,92.92
2016-10-23T02:30:28.738Z,93.01
2016-10-23T02:30:50.464Z,93.02
2016-10-23T02:31:12.190Z,92.95
2016-10-23T02:31:33.917Z,93.18
2016-10-23T02:31:55.702Z,93.49
2016-10-23T02:32:22.241Z,93.78
2016-10-23T02:32:44.051Z,93.95
2016-10-23T02:33:05.883Z,93.99
2016-10-23T02:33:27.641Z,94.03
2016-10-23T02:33:49.482Z,94.11
2016-10-23T02:34:11.206Z,94.16
2016-10-23T02:34:32.921Z,94.15
2016-10-23T02:34:54.640Z,94.10
2016-10-23T02:35:17.373Z,94.08
2016-10-23T02:35:39.110Z,94.04
2016-10-23T02:36:00.845Z,94.04
2016-10-23T02:36:22.572Z,93.98
2016-10-23T02:36:44.304Z,93.92
2016-10-23T02:37:06.191Z,93.87
2016-10-23T02:37:27.960Z,93.85
2016-10-23T02:37:49.713Z,93.76
2016-10-23T02:38:11.561Z,93.78
2016-10-23T02:38:33.353Z,93.80
2016-10-23T02:38:55.085Z,93.80
2016-10-23T02:39:16.935Z,93.67
2016-10-23T02:39:38.663Z,93.69
2016-10-23T02:40:00.439Z,93.68
2016-10-23T02:40:22.213Z,93.66
2016-10-23T02:40:44.095Z,93.50
2016-10-23T02:41:05.908Z,93.41
2016-10-23T02:41:27.678Z,93.39
2016-10-23T02:41:54.180Z,93.34
2016-10-23T02:42:18.584Z,93.34
2016-10-23T02:42:40.317Z,93.34
2016-10-23T02:43:02.039Z,93.36
2016-10-23T02:43:23.767Z,93.34
2016-10-23T02:43:45.495Z,93.38
2016-10-23T02:44:07.226Z,93.25
2016-10-23T02:44:29.944Z,93.24
2016-10-23T02:44:51.762Z,93.16
2016-10-23T02:45:13.525Z,93.16
2016-10-23T02:45:35.251Z,93.14
2016-10-23T02:45:56.984Z,93.23
2016-10-23T02:46:18.708Z,93.24
2016-10-23T02:46:40.436Z,93.13
2016-10-23T02:47:02.173Z,93.11
2016-10-23T02:47:23.900Z,93.26
2016-10-23T02:47:45.648Z,93.27
2016-10-23T02:48:07.373Z,93.34
2016-10-23T02:48:29.093Z,93.37
2016-10-23T02:48:50.812Z,93.38
2016-10-23T02:49:12.531Z,93.33
2016-10-23T02:49:34.267Z,93.42
2016-10-23T02:49:56.067Z,93.53
2016-10-23T02:50:17.803Z,93.56
2016-10-23T02:50:39.524Z,93.56
2016-10-23T02:51:01.256Z,93.65
2016-10-23T02:51:22.986Z,93.77
2016-10-23T02:51:44.701Z,93.82
2016-10-23T02:52:06.438Z,93.77
2016-10-23T02:52:28.155Z,93.69
2016-10-23T02:52:49.897Z,93.65
2016-10-23T02:53:11.651Z,93.73
2016-10-23T02:53:33.374Z,93.52
2016-10-23T02:53:55.106Z,93.52
2016-10-23T02:54:16.971Z,93.41
2016-10-23T02:54:38.700Z,93.33
2016-10-23T02:55:00.419Z,93.26
2016-10-23T02:55:22.461Z,93.23
2016-10-23T02:55:44.273Z,93.31
2016-10-23T02:56:06.148Z,93.39
2016-10-23T02:56:27.983Z,93.49
2016-10-23T02:56:49.785Z,93.72
2016-10-23T02:57:11.621Z,93.88
2016-10-23T02:57:33.553Z,93.93
2016-10-23T02:57:55.306Z,93.94
2016-10-23T02:58:17.167Z,93.85
2016-10-23T02:58:38.926Z,93.84
2016-10-23T02:59:00.728Z,93.80
2016-10-23T02:59:22.722Z,93.82
2016-10-23T02:59:44.471Z,93.78
2016-10-23T03:00:06.270Z,93.72
2016-10-23T03:00:28.227Z,93.61
2016-10-23T03:00:49.948Z,93.59
2016-10-23T03:01:11.677Z,93.65
2016-10-23T03:01:33.407Z,93.67
2016-10-23T03:01:55.144Z,93.67
2016-10-23T03:02:16.870Z,93.63
2016-10-23T03:02:38.665Z,93.66
2016-10-23T03:03:00.395Z,93.70
2016-10-23T03:03:22.121Z,93.70
2016-10-23T03:03:43.840Z,93.77
2016-10-23T03:04:05.570Z,93.74
2016-10-23T03:04:27.346Z,93.53
2016-10-23T03:04:53.870Z,93.43
2016-10-23T03:05:15.660Z,93.41
2016-10-23T03:05:37.560Z,93.53
2016-10-23T03:05:59.310Z,93.57
2016-10-23T03:06:21.043Z,93.47
2016-10-23T03:06:42.775Z,93.35
2016-10-23T03:07:04.493Z,93.24
2016-10-23T03:07:26.227Z,93.37
2016-10-23T03:07:47.955Z,93.55
2016-10-23T03:08:09.687Z,93.66
2016-10-23T03:08:31.523Z,93.74
2016-10-23T03:08:53.396Z,93.84
2016-10-23T03:09:15.124Z,93.86
2016-10-23T03:09:36.875Z,93.66
2016-10-23T03:09:58.587Z,93.66
2016-10-23T03:10:20.319Z,93.71
2016-10-23T03:10:42.045Z,93.70
2016-10-23T03:11:03.791Z,93.57
2016-10-23T03:11:25.642Z,93.48
2016-10-23T03:11:47.596Z,93.46
2016-10-23T03:12:09.309Z,93.41
2016-10-23T03:12:31.183Z,93.27
2016-10-23T03:12:53.035Z,93.21
2016-10-23T03:13:15.111Z,93.10
2016-10-23T03:13:36.846Z,93.10
2016-10-23T03:13:58.657Z,93.13
2016-10-23T03:14:20.617Z,93.19
2016-10-23T03:14:42.430Z,93.12
2016-10-23T03:15:04.202Z,93.16
2016-10-23T03:15:25.943Z,93.19
2016-10-23T03:15:47.896Z,93.20
2016-10-23T03:16:09.694Z,93.11
2016-10-23T03:16:31.540Z,93.13
2016-10-23T03:16:53.374Z,93.15
2016-10-23T03:17:15.287Z,93.19
2016-10-23T03:17:38.123Z,93.16
2016-10-23T03:17:59.869Z,93.26
2016-10-23T03:18:21.705Z,93.35
2016-10-23T03:18:43.483Z,93.43
2016-10-23T03:19:05.262Z,93.55
2016-10-23T03:19:27.078Z,93.52
2016-10-23T03:19:48.847Z,93.53
2016-10-23T03:20:10.586Z,93.40
2016-10-23T03:20:32.307Z,93.21
2016-10-23T03:20:54.036Z,93.21
2016-10-23T03:21:20.532Z,93.10
2016-10-23T03:21:42.263Z,93.00
2016-10-23T03:22:04.031Z,92.99
2016-10-23T03:22:25.835Z,92.95
2016-10-23T03:22:47.637Z,92.90
2016-10-23T03:23:09.413Z,93.03
2016-10-23T03:23:31.204Z,93.12
2016-10-23T03:23:52.957Z,93.13
2016-10-23T03:24:19.451Z,93.20
2016-10-23T03:24:41.193Z,93.18
2016-10-23T03:25:02.915Z,93.11
2016-10-23T03:25:24.651Z,93.08
2016-10-23T03:25:46.380Z,93.10
2016-10-23T03:26:08.120Z,93.19
2016-10-23T03:26:29.863Z,93.20
2016-10-23T03:26:51.589Z,93.36
2016-10-23T03:27:13.340Z,93.31
2016-10-23T03:27:35.140Z,93.21
2016-10-23T03:27:56.961Z,93.19
2016-10-23T03:28:18.842Z,93.14
2016-10-23T03:28:40.653Z,93.36
2016-10-23T03:29:02.371Z,93.50
2016-10-23T03:29:24.147Z,93.64
2016-10-23T03:29:46.881Z,93.68
2016-10-23T03:30:08.594Z,93.36
2016-10-23T03:30:30.319Z,93.10
2016-10-23T03:30:52.043Z,93.03
2016-10-23T03:31:13.778Z,92.88
2016-10-23T03:31:35.552Z,92.67
2016-10-23T03:31:57.341Z,92.58
2016-10-23T03:32:19.068Z,92.52
2016-10-23T03:32:41.804Z,92.60
2016-10-23T03:33:03.541Z,92.86
2016-10-23T03:33:25.276Z,92.98
2016-10-23T03:33:47.012Z,92.88
2016-10-23T03:34:08.738Z,92.73
2016-10-23T03:34:30.607Z,92.57
2016-10-23T03:34:53.332Z,92.38
2016-10-23T03:35:15.091Z,92.28
2016-10-23T03:35:36.858Z,92.33
2016-10-23T03:35:58.589Z,92.43
2016-10-23T03:36:20.313Z,92.73
2016-10-23T03:36:42.114Z,92.57
2016-10-23T03:37:03.834Z,92.57
2016-10-23T03:37:25.574Z,92.70
2016-10-23T03:37:47.307Z,92.89
2016-10-23T03:38:09.044Z,93.13
2016-10-23T03:38:30.771Z,92.81
2016-10-23T03:38:52.766Z,92.72
2016-10-23T03:39:14.679Z,92.66
2016-10-23T03:39:36.505Z,92.59
2016-10-23T03:39:58.385Z,92.61
2016-10-23T03:40:20.102Z,92.72
2016-10-23T03:40:41.837Z,92.95
2016-10-23T03:41:03.553Z,92.97
2016-10-23T03:41:25.272Z,92.88
2016-10-23T03:41:46.994Z,92.89
2016-10-23T03:42:08.740Z,92.87
2016-10-23T03:42:30.489Z,92.85
2016-10-23T03:42:52.273Z,92.97
2016-10-23T03:43:14.020Z,93.09
2016-10-23T03:43:35.757Z,93.24
2016-10-23T03:43:57.521Z,93.13
2016-10-23T03:44:19.307Z,92.90
2016-10-23T03:44:41.158Z,93.00
2016-10-23T03:45:02.878Z,92.87
2016-10-23T03:45:24.604Z,92.72
2016-10-23T03:45:46.340Z,92.61
2016-10-23T03:46:08.065Z,92.60
2016-10-23T03:46:29.876Z,92.53
2016-10-23T03:46:51.692Z,92.70
2016-10-23T03:47:13.662Z,92.76
2016-10-23T03:47:35.685Z,93.05
2016-10-23T03:47:57.468Z,93.02
2016-10-23T03:48:22.091Z,93.01
2016-10-23T03:48:43.906Z,92.75
2016-10-23T03:49:05.771Z,92.77
2016-10-23T03:49:27.505Z,92.95
2016-10-23T03:49:49.252Z,93.12
2016-10-23T03:50:11.119Z,93.24
2016-10-23T03:50:33.153Z,93.34
2016-10-23T03:50:55.081Z,93.30
2016-10-23T03:51:21.628Z,93.20
2016-10-23T03:51:43.355Z,93.21
2016-10-23T03:52:05.079Z,93.18
2016-10-23T03:52:26.817Z,93.24
2016-10-23T03:52:48.556Z,93.42
2016-10-23T03:53:15.057Z,93.35
2016-10-23T03:53:36.857Z,93.21
2016-10-23T03:53:58.588Z,92.95
2016-10-23T03:54:21.327Z,92.90
2016-10-23T03:54:43.071Z,93.00
2016-10-23T03:55:06.795Z,92.72
2016-10-23T03:55:28.556Z,92.97
2016-10-23T03:55:50.338Z,93.33
2016-10-23T03:56:12.177Z,93.42
2016-10-23T03:56:34.118Z,93.55
2016-10-23T03:56:55.970Z,93.75
2016-10-23T03:57:17.883Z,94.00
2016-10-23T03:57:39.614Z,94.08
2016-10-23T03:58:01.353Z,94.19
2016-10-23T03:58:23.080Z,94.42
2016-10-23T03:58:44.919Z,94.53
2016-10-23T03:59:11.408Z,94.40
2016-10-23T03:59:33.144Z,94.28
2016-10-23T03:59:54.868Z,94.05
2016-10-23T04:00:16.681Z,93.83
2016-10-23T04:00:38.424Z,93.69
2016-10-23T04:01:00.115Z,93.46
2016-10-23T04:01:21.833Z,93.50
2016-10-23T04:01:43.580Z,93.53
2016-10-23T04:02:05.321Z,93.57
2016-10-23T04:02:27.103Z,93.58
2016-10-23T04:02:48.938Z,93.72
2016-10-23T04:03:10.710Z,93.74
2016-10-23T04:03:32.454Z,93.76
2016-10-23T04:03:54.378Z,93.79
2016-10-23T04:04:17.119Z,93.67
2016-10-23T04:04:38.836Z,93.50
2016-10-23T04:05:00.565Z,93.16
2016-10-23T04:05:22.302Z,93.20
2016-10-23T04:05:44.046Z,93.16
2016-10-23T04:06:05.766Z,92.95
2016-10-23T04:06:27.480Z,92.82
2016-10-23T04:06:49.201Z,92.77
2016-10-23T04:07:10.967Z,92.70
2016-10-23T04:07:32.749Z,92.77
2016-10-23T04:07:54.642Z,92.83
2016-10-23T04:08:16.513Z,93.18
2016-10-23T04:08:38.404Z,93.46
2016-10-23T04:09:00.370Z,93.83
2016-10-23T04:09:22.192Z,94.01
2016-10-23T04:09:43.971Z,93.84
2016-10-23T04:10:05.765Z,93.59
2016-10-23T04:10:27.621Z,93.50
2016-10-23T04:10:50.340Z,93.21
2016-10-23T04:11:12.066Z,93.11
2016-10-23T04:11:33.795Z,93.30
2016-10-23T04:11:55.528Z,93.46
2016-10-23T04:12:17.297Z,93.51
2016-10-23T04:12:39.033Z,93.75
2016-10-23T04:13:00.835Z,93.95
2016-10-23T04:13:22.649Z,94.24
2016-10-23T04:13:44.517Z,94.49
2016-10-23T04:14:06.385Z,94.61
2016-10-23T04:14:28.148Z,94.62
2016-10-23T04:14:49.888Z,94.62
2016-10-23T04:15:11.675Z,94.68
2016-10-23T04:15:33.423Z,94.62
2016-10-23T04:15:55.251Z,94.33
2016-10-23T04:16:21.874Z,93.96
2016-10-23T04:16:43.763Z,93.80
2016-10-23T04:17:05.612Z,93.51
2016-10-23T04:17:27.479Z,93.36
2016-10-23T04:17:49.379Z,93.63
2016-10-23T04:18:11.136Z,93.53
2016-10-23T04:18:32.956Z,93.59
2016-10-23T04:18:54.706Z,93.84
2016-10-23T04:19:17.456Z,93.68
2016-10-23T04:19:39.246Z,93.31
2016-10-23T04:20:00.967Z,93.30
2016-10-23T04:20:23.748Z,93.22
2016-10-23T04:20:45.475Z,93.03
2016-10-23T04:21:07.280Z,93.09
2016-10-23T04:21:29.075Z,93.20
2016-10-23T04:21:50.922Z,93.29
2016-10-23T04:22:12.743Z,93.19
2016-10-23T04:22:34.612Z,93.10
2016-10-23T04:22:56.336Z,92.98
2016-10-23T04:23:18.071Z,92.86
2016-10-23T04:23:39.793Z,92.90
2016-10-23T04:24:01.527Z,93.10
2016-10-23T04:24:23.259Z,93.42
2016-10-23T04:24:49.749Z,93.70
2016-10-23T04:25:11.478Z,93.73
2016-10-23T04:25:33.215Z,93.58
2016-10-23T04:25:54.945Z,93.28
2016-10-23T04:26:16.685Z,93.18
2016-10-23T04:26:38.417Z,93.29
2016-10-23T04:27:00.155Z,93.44
2016-10-23T04:27:21.916Z,93.55
2016-10-23T04:27:43.662Z,93.59
2016-10-23T04:28:05.393Z,93.32
2016-10-23T04:28:27.419Z,93.27
2016-10-23T04:28:49.311Z,93.39
2016-10-23T04:29:11.042Z,93.09
2016-10-23T04:29:32.778Z,93.13
2016-10-23T04:29:54.494Z,92.93
2016-10-23T04:30:16.355Z,93.11
2016-10-23T04:30:38.084Z,93.06
2016-10-23T04:30:59.806Z,92.83
2016-10-23T04:31:21.526Z,92.86
2016-10-23T04:31:43.334Z,92.75
2016-10-23T04:32:05.090Z,92.83
2016-10-23T04:32:26.878Z,93.08
2016-10-23T04:32:48.817Z,93.06
2016-10-23T04:33:10.573Z,92.82
2016-10-23T04:33:32.374Z,92.91
2016-10-23T04:33:54.083Z,92.91
2016-10-23T04:34:16.014Z,93.06
2016-10-23T04:34:37.857Z,93.25
2016-10-23T04:34:59.587Z,93.44
2016-10-23T04:35:21.324Z,93.41
2016-10-23T04:35:43.062Z,93.28
2016-10-23T04:36:09.563Z,93.19
2016-10-23T04:36:36.055Z,93.21
2016-10-23T04:36:57.819Z,93.38
2016-10-23T04:37:19.702Z,93.66
2016-10-23T04:37:41.438Z,93.89
2016-10-23T04:38:03.182Z,93.68
2016-10-23T04:38:24.908Z,93.61
2016-10-23T04:38:46.648Z,93.61
2016-10-23T04:39:08.402Z,93.43
2016-10-23T04:39:30.131Z,93.22
2016-10-23T04:39:51.876Z,92.99
2016-10-23T04:40:13.631Z,92.96
2016-10-23T04:40:35.487Z,93.04
2016-10-23T04:40:57.366Z,92.92
2016-10-23T04:41:19.171Z,92.93
2016-10-23T04:41:41.091Z,92.60
2016-10-23T04:42:02.882Z,92.46
2016-10-23T04:42:24.615Z,92.44
2016-10-23T04:42:46.346Z,92.66
2016-10-23T04:43:08.076Z,92.64
2016-10-23T04:43:56.350Z,92.47
2016-10-23T04:44:18.105Z,92.60
2016-10-23T04:44:39.842Z,92.72
2016-10-23T04:45:01.592Z,92.75
2016-10-23T04:45:23.431Z,92.92